createdAt,value
2017-02-18T00:00:20.940Z,96.88
2017-02-18T00:01:21.323Z,96.6
2017-02-18T00:02:21.307Z,96.79
2017-02-18T00:03:21.303Z,96.98
2017-02-18T00:04:21.285Z,97.17
2017-02-18T00:05:21.283Z,96.88
2017-02-18T00:06:21.263Z,96.6
2017-02-18T00:07:21.257Z,96.79
2017-02-18T00:08:21.243Z,96.79
2017-02-18T00:09:21.241Z,96.6
2017-02-18T00:10:21.224Z,96.88
2017-02-18T00:11:21.213Z,96.69
2017-02-18T00:12:21.217Z,96.88
2017-02-18T00:13:21.215Z,96.98
2017-02-18T00:14:21.193Z,96.88
2017-02-18T00:15:21.185Z,96.88
2017-02-18T00:16:21.168Z,96.98
2017-02-18T00:17:21.162Z,96.79
2017-02-18T00:18:21.137Z,96.79
2017-02-18T00:19:21.135Z,97.17
2017-02-18T00:20:21.124Z,97.17
2017-02-18T00:21:21.115Z,97.17
2017-02-18T00:22:21.101Z,96.79
2017-02-18T00:23:21.086Z,97.27
2017-02-18T00:24:21.087Z,97.27
2017-02-18T00:25:21.083Z,97.27
2017-02-18T00:26:21.057Z,97.07
2017-02-18T00:27:21.054Z,97.36
2017-02-18T00:28:21.048Z,97.07
2017-02-18T00:29:21.029Z,97.27
2017-02-18T00:30:21.032Z,97.07
2017-02-18T00:31:21.010Z,97.64
2017-02-18T00:32:20.994Z,97.45
2017-02-18T00:33:20.994Z,97.45
2017-02-18T00:34:20.980Z,97.36
2017-02-18T00:35:20.959Z,96.98
2017-02-18T00:36:20.956Z,97.36
2017-02-18T00:37:20.937Z,97.27
2017-02-18T00:38:20.937Z,97.64
2017-02-18T00:39:20.931Z,96.88
2017-02-18T00:40:20.913Z,96.88
2017-02-18T00:41:20.917Z,97.27
2017-02-18T00:42:20.885Z,97.74
2017-02-18T00:43:20.878Z,97.64
2017-02-18T00:44:20.863Z,97.36
2017-02-18T00:45:20.853Z,97.74
2017-02-18T00:46:20.853Z,97.64
2017-02-18T00:47:20.835Z,97.07
2017-02-18T00:48:20.822Z,97.17
2017-02-18T00:49:20.810Z,97.07
2017-02-18T00:50:20.819Z,97.45
2017-02-18T00:51:20.790Z,97.27
2017-02-18T00:52:20.782Z,97.07
2017-02-18T00:53:20.787Z,97.27
2017-02-18T00:54:20.757Z,97.45
2017-02-18T00:55:20.762Z,96.88
2017-02-18T00:56:20.367Z,96.98
2017-02-18T00:57:20.739Z,96.88
2017-02-18T00:58:20.721Z,96.5
2017-02-18T00:59:20.714Z,96.22
2017-02-18T01:00:20.700Z,96.79
2017-02-18T01:01:20.683Z,97.27
2017-02-18T01:02:20.680Z,97.17
2017-02-18T01:03:20.671Z,96.88
2017-02-18T01:04:20.654Z,96.98
2017-02-18T01:05:20.648Z,96.79
2017-02-18T01:06:20.633Z,97.17
2017-02-18T01:07:20.629Z,96.88
2017-02-18T01:08:20.621Z,96.98
2017-02-18T01:09:20.608Z,97.07
2017-02-18T01:10:20.590Z,96.69
2017-02-18T01:11:20.580Z,96.98
2017-02-18T01:12:20.568Z,96.88
2017-02-18T01:13:20.575Z,96.98
2017-02-18T01:14:20.548Z,96.31
2017-02-18T01:15:20.541Z,96.31
2017-02-18T01:16:20.545Z,96.5
2017-02-18T01:17:20.525Z,95.46
2017-02-18T01:18:20.511Z,95.65
2017-02-18T01:19:20.499Z,96.41
2017-02-18T01:20:20.495Z,96.31
2017-02-18T01:21:20.493Z,95.94
2017-02-18T01:22:20.479Z,96.41
2017-02-18T01:23:20.456Z,96.22
2017-02-18T01:24:20.438Z,96.12
2017-02-18T01:25:20.439Z,96.6
2017-02-18T01:26:20.416Z,96.12
2017-02-18T01:27:20.416Z,96.22
2017-02-18T01:28:20.393Z,96.22
2017-02-18T01:29:20.383Z,95.75
2017-02-18T01:30:20.392Z,95.65
2017-02-18T01:31:20.371Z,95.55
2017-02-18T01:32:20.362Z,95.84
2017-02-18T01:33:20.343Z,95.65
2017-02-18T01:34:20.338Z,95.36
2017-02-18T01:35:20.336Z,95.55
2017-02-18T01:36:20.312Z,95.94
2017-02-18T01:37:20.298Z,95.75
2017-02-18T01:38:20.289Z,95.65
2017-02-18T01:39:20.280Z,95.36
2017-02-18T01:40:20.273Z,95.65
2017-02-18T01:41:20.270Z,95.36
2017-02-18T01:42:20.253Z,95.94
2017-02-18T01:43:20.236Z,95.55
2017-02-18T01:44:20.227Z,95.08
2017-02-18T01:45:20.212Z,95.84
2017-02-18T01:46:20.216Z,95.94
2017-02-18T01:47:20.201Z,95.75
2017-02-18T01:48:20.192Z,95.17
2017-02-18T01:49:20.179Z,95.36
2017-02-18T01:50:20.167Z,95.36
2017-02-18T01:51:20.223Z,94.79
2017-02-18T01:52:20.152Z,94.7
2017-02-18T01:53:20.139Z,95.55
2017-02-18T01:54:20.126Z,95.36
2017-02-18T01:55:20.109Z,95.08
2017-02-18T01:56:20.100Z,95.17
2017-02-18T01:57:20.086Z,95.27
2017-02-18T01:58:20.095Z,95.36
2017-02-18T01:59:20.064Z,95.27
2017-02-18T02:00:20.069Z,95.55
2017-02-18T02:01:20.053Z,95.17
2017-02-18T02:02:20.034Z,95.36
2017-02-18T02:03:20.029Z,95.65
2017-02-18T02:04:20.031Z,95.17
2017-02-18T02:05:20.013Z,95.36
2017-02-18T02:06:19.994Z,95.36
2017-02-18T02:07:19.977Z,95.36
2017-02-18T02:08:19.987Z,95.08
2017-02-18T02:09:19.974Z,95.17
2017-02-18T02:10:19.953Z,94.89
2017-02-18T02:11:19.949Z,94.89
2017-02-18T02:12:19.935Z,95.08
2017-02-18T02:13:19.921Z,95.17
2017-02-18T02:14:19.919Z,94.51
2017-02-18T02:15:19.900Z,94.7
2017-02-18T02:16:19.892Z,94.42
2017-02-18T02:17:19.891Z,94.51
2017-02-18T02:18:19.861Z,94.23
2017-02-18T02:19:19.870Z,94.32
2017-02-18T02:20:19.839Z,94.03
2017-02-18T02:21:19.847Z,94.23
2017-02-18T02:22:19.832Z,94.23
2017-02-18T02:23:19.805Z,94.13
2017-02-18T02:24:19.805Z,94.32
2017-02-18T02:25:19.794Z,94.42
2017-02-18T02:26:19.778Z,94.32
2017-02-18T02:27:19.762Z,94.13
2017-02-18T02:28:19.775Z,94.23
2017-02-18T02:29:19.745Z,94.13
2017-02-18T02:30:19.741Z,93.75
2017-02-18T02:31:19.729Z,94.13
2017-02-18T02:32:19.722Z,94.13
2017-02-18T02:33:19.727Z,93.75
2017-02-18T02:34:19.988Z,94.03
2017-02-18T02:35:19.705Z,94.13
2017-02-18T02:36:19.668Z,94.32
2017-02-18T02:37:19.860Z,94.23
2017-02-18T02:38:19.667Z,94.13
2017-02-18T02:39:19.650Z,94.13
2017-02-18T02:40:19.630Z,94.23
2017-02-18T02:41:19.621Z,93.75
2017-02-18T02:42:19.215Z,93.94
2017-02-18T02:43:19.601Z,93.94
2017-02-18T02:44:19.587Z,93.65
2017-02-18T02:45:19.577Z,94.03
2017-02-18T02:46:19.557Z,93.65
2017-02-18T02:47:19.548Z,93.65
2017-02-18T02:48:19.558Z,93.84
2017-02-18T02:49:19.541Z,93.46
2017-02-18T02:50:19.523Z,93.46
2017-02-18T02:51:19.507Z,93.46
2017-02-18T02:52:19.518Z,93.94
2017-02-18T02:53:19.494Z,93.94
2017-02-18T02:54:19.481Z,93.75
2017-02-18T02:55:19.458Z,93.46
2017-02-18T02:56:19.450Z,93.56
2017-02-18T02:57:19.452Z,93.46
2017-02-18T02:58:19.439Z,93.27
2017-02-18T02:59:19.423Z,93.37
2017-02-18T03:00:19.411Z,93.27
2017-02-18T03:01:19.406Z,93.27
2017-02-18T03:02:19.396Z,93.27
2017-02-18T03:03:19.383Z,93.27
2017-02-18T03:04:19.375Z,93.37
2017-02-18T03:05:19.356Z,93.08
2017-02-18T03:06:19.353Z,93.27
2017-02-18T03:07:19.350Z,93.27
2017-02-18T03:08:19.324Z,93.18
2017-02-18T03:09:19.332Z,93.37
2017-02-18T03:10:19.301Z,93.65
2017-02-18T03:11:19.300Z,93.56
2017-02-18T03:12:19.290Z,93.37
2017-02-18T03:13:19.269Z,93.37
2017-02-18T03:14:19.268Z,93.56
2017-02-18T03:15:19.246Z,92.8
2017-02-18T03:16:19.243Z,92.99
2017-02-18T03:17:19.237Z,92.99
2017-02-18T03:18:19.225Z,93.18
2017-02-18T03:19:19.455Z,93.46
2017-02-18T03:20:19.198Z,93.32
2017-02-18T03:21:19.188Z,93.65
2017-02-18T03:22:19.183Z,93.27
2017-02-18T03:23:18.774Z,93.37
2017-02-18T03:24:19.171Z,93.65
2017-02-18T03:25:19.151Z,93.46
2017-02-18T03:26:19.130Z,93.27
2017-02-18T03:27:19.126Z,92.99
2017-02-18T03:28:19.115Z,93.27
2017-02-18T03:29:19.104Z,93.27
2017-02-18T03:30:19.096Z,93.08
2017-02-18T03:31:19.095Z,93.08
2017-02-18T03:32:19.068Z,92.99
2017-02-18T03:33:19.064Z,92.99
2017-02-18T03:34:19.045Z,93.08
2017-02-18T03:35:19.040Z,93.27
2017-02-18T03:36:19.035Z,92.9
2017-02-18T03:37:19.012Z,93.37
2017-02-18T03:38:19.023Z,93.23
2017-02-18T03:39:18.996Z,92.99
2017-02-18T03:40:19.005Z,92.61
2017-02-18T03:41:18.966Z,93.08
2017-02-18T03:42:18.954Z,93.08
2017-02-18T03:43:18.947Z,92.42
2017-02-18T03:44:18.950Z,92.99
2017-02-18T03:45:18.929Z,92.99
2017-02-18T03:46:18.915Z,93.32
2017-02-18T03:47:18.900Z,93.46
2017-02-18T03:48:18.891Z,93.46
2017-02-18T03:49:18.493Z,93.27
2017-02-18T03:50:18.877Z,93.46
2017-02-18T03:51:18.870Z,93.37
2017-02-18T03:52:18.850Z,93.37
2017-02-18T03:53:18.833Z,92.99
2017-02-18T03:54:18.844Z,93.56
2017-02-18T03:55:18.822Z,93.46
2017-02-18T03:56:18.810Z,93.27
2017-02-18T03:57:18.860Z,93.27
2017-02-18T03:58:18.800Z,93.18
2017-02-18T03:59:18.772Z,93.08
2017-02-18T04:00:18.769Z,93.18
2017-02-18T04:01:18.771Z,93.37
2017-02-18T04:02:18.745Z,93.46
2017-02-18T04:03:18.728Z,93.56
2017-02-18T04:04:18.724Z,93.46
2017-02-18T04:05:18.712Z,93.37
2017-02-18T04:06:18.704Z,93.46
2017-02-18T04:07:18.692Z,93.18
2017-02-18T04:08:18.677Z,93.32
2017-02-18T04:09:18.727Z,93.27
2017-02-18T04:10:18.650Z,93.27
2017-02-18T04:11:18.656Z,93.18
2017-02-18T04:12:18.643Z,93.27
2017-02-18T04:13:18.631Z,93.27
2017-02-18T04:14:18.615Z,93.46
2017-02-18T04:15:18.607Z,93.46
2017-02-18T04:16:18.591Z,93.37
2017-02-18T04:17:18.587Z,93.37
2017-02-18T04:18:18.565Z,92.99
2017-02-18T04:19:18.551Z,93.37
2017-02-18T04:20:18.558Z,93.37
2017-02-18T04:21:18.542Z,92.9
2017-02-18T04:22:18.520Z,92.8
2017-02-18T04:23:18.508Z,93.08
2017-02-18T04:24:18.516Z,92.99
2017-02-18T04:25:18.098Z,93.27
2017-02-18T04:26:18.482Z,93.18
2017-02-18T04:27:18.466Z,92.9
2017-02-18T04:28:18.459Z,93.18
2017-02-18T04:29:18.464Z,93.37
2017-02-18T04:30:18.440Z,93.37
2017-02-18T04:31:18.428Z,93.46
2017-02-18T04:32:18.420Z,93.37
2017-02-18T04:33:18.398Z,92.9
2017-02-18T04:34:18.396Z,92.8
2017-02-18T04:35:18.380Z,92.51
2017-02-18T04:36:18.374Z,92.51
2017-02-18T04:37:18.379Z,92.99
2017-02-18T04:38:18.348Z,93.27
2017-02-18T04:39:18.344Z,93.37
2017-02-18T04:40:18.330Z,93.56
2017-02-18T04:41:18.322Z,93.37
2017-02-18T04:42:18.327Z,92.9
2017-02-18T04:43:18.300Z,93.08
2017-02-18T04:44:18.284Z,92.8
2017-02-18T04:45:18.274Z,92.8
2017-02-18T04:46:18.257Z,93.04
2017-02-18T04:47:18.250Z,93.08
2017-02-18T04:48:17.849Z,92.85
2017-02-18T04:49:18.236Z,93.23
2017-02-18T04:50:18.222Z,93.04
2017-02-18T04:51:18.205Z,93.32
2017-02-18T04:52:18.203Z,93.32
2017-02-18T04:53:18.192Z,93.32
2017-02-18T04:54:18.182Z,93.51
2017-02-18T04:55:18.171Z,93.6
2017-02-18T04:56:18.172Z,93.7
2017-02-18T04:57:18.138Z,93.32
2017-02-18T04:58:18.137Z,93.6
2017-02-18T04:59:18.141Z,93.7
2017-02-18T05:00:17.716Z,94.65
2017-02-18T05:01:18.096Z,94.37
2017-02-18T05:02:18.084Z,94.46
2017-02-18T05:03:18.081Z,95.22
2017-02-18T05:04:18.063Z,94.74
2017-02-18T05:05:18.071Z,95.12
2017-02-18T05:06:18.041Z,94.93
2017-02-18T05:07:18.035Z,94.74
2017-02-18T05:08:18.017Z,95.51
2017-02-18T05:09:18.003Z,94.84
2017-02-18T05:10:17.997Z,94.74
2017-02-18T05:11:18.003Z,95.41
2017-02-18T05:12:17.983Z,94.84
2017-02-18T05:13:17.967Z,94.93
2017-02-18T05:14:17.948Z,95.22
2017-02-18T05:15:17.954Z,95.12
2017-02-18T05:16:17.933Z,95.12
2017-02-18T05:17:17.917Z,95.22
2017-02-18T05:18:17.915Z,95.03
2017-02-18T05:19:17.908Z,94.93
2017-02-18T05:20:17.895Z,95.12
2017-02-18T05:21:17.880Z,95.03
2017-02-18T05:22:17.873Z,95.22
2017-02-18T05:23:17.857Z,95.03
2017-02-18T05:24:17.849Z,95.22
2017-02-18T05:25:17.848Z,95.12
2017-02-18T05:26:17.824Z,95.03
2017-02-18T05:27:17.826Z,94.46
2017-02-18T05:28:17.805Z,95.31
2017-02-18T05:29:17.794Z,95.03
2017-02-18T05:30:17.784Z,95.22
2017-02-18T05:31:17.771Z,95.03
2017-02-18T05:32:17.757Z,95.12
2017-02-18T05:33:17.805Z,95.12
2017-02-18T05:34:17.730Z,95.03
2017-02-18T05:35:17.736Z,95.22
2017-02-18T05:36:17.734Z,95.31
2017-02-18T05:37:17.311Z,94.65
2017-02-18T05:38:17.691Z,94.27
2017-02-18T05:39:17.686Z,94.46
2017-02-18T05:40:17.672Z,94.18
2017-02-18T05:41:17.706Z,94.46
2017-02-18T05:42:17.655Z,94.18
2017-02-18T05:43:17.653Z,94.46
2017-02-18T05:44:17.631Z,94.08
2017-02-18T05:45:17.615Z,94.56
2017-02-18T05:46:17.612Z,94.37
2017-02-18T05:47:17.641Z,94.46
2017-02-18T05:48:17.585Z,94.56
2017-02-18T05:49:17.572Z,94.56
2017-02-18T05:50:17.573Z,94.08
2017-02-18T05:51:17.546Z,93.99
2017-02-18T05:52:17.540Z,94.08
2017-02-18T05:53:17.520Z,94.08
2017-02-18T05:54:17.510Z,93.89
2017-02-18T05:55:17.499Z,93.8
2017-02-18T05:56:17.485Z,94.18
2017-02-18T05:57:17.478Z,94.27
2017-02-18T05:58:17.474Z,93.99
2017-02-18T05:59:17.465Z,94.08
2017-02-18T06:00:17.452Z,94.37
2017-02-18T06:01:17.440Z,94.37
2017-02-18T06:02:17.429Z,94.37
2017-02-18T06:03:17.411Z,94.18
2017-02-18T06:04:17.405Z,94.18
2017-02-18T06:05:17.003Z,94.18
2017-02-18T06:06:17.397Z,93.51
2017-02-18T06:07:17.375Z,93.8
2017-02-18T06:08:17.377Z,93.99
2017-02-18T06:09:17.351Z,93.89
2017-02-18T06:10:16.948Z,93.6
2017-02-18T06:11:17.324Z,93.7
2017-02-18T06:12:17.325Z,93.89
2017-02-18T06:13:17.305Z,93.8
2017-02-18T06:14:17.289Z,93.8
2017-02-18T06:15:17.284Z,93.6
2017-02-18T06:16:17.271Z,93.8
2017-02-18T06:17:16.876Z,93.6
2017-02-18T06:18:17.248Z,94.08
2017-02-18T06:19:17.249Z,93.8
2017-02-18T06:20:17.218Z,93.32
2017-02-18T06:21:17.229Z,93.41
2017-02-18T06:22:17.207Z,93.89
2017-02-18T06:23:17.196Z,93.89
2017-02-18T06:24:17.173Z,93.6
2017-02-18T06:25:17.166Z,93.23
2017-02-18T06:26:17.159Z,93.32
2017-02-18T06:27:17.155Z,93.32
2017-02-18T06:28:17.139Z,93.7
2017-02-18T06:29:17.123Z,93.41
2017-02-18T06:30:17.113Z,93.51
2017-02-18T06:31:17.121Z,93.7
2017-02-18T06:32:17.099Z,93.51
2017-02-18T06:33:17.091Z,93.32
2017-02-18T06:34:17.081Z,93.13
2017-02-18T06:35:17.064Z,92.94
2017-02-18T06:36:17.053Z,93.32
2017-02-18T06:37:17.039Z,93.32
2017-02-18T06:38:16.637Z,93.32
2017-02-18T06:39:16.622Z,93.7
2017-02-18T06:40:17.000Z,93.89
2017-02-18T06:41:16.997Z,94.18
2017-02-18T06:42:16.979Z,93.89
2017-02-18T06:43:16.978Z,94.08
2017-02-18T06:44:16.972Z,94.08
2017-02-18T06:45:16.944Z,93.99
2017-02-18T06:46:16.935Z,94.18
2017-02-18T06:47:16.932Z,94.08
2017-02-18T06:48:16.918Z,93.7
2017-02-18T06:49:16.906Z,93.89
2017-02-18T06:50:16.897Z,93.7
2017-02-18T06:51:16.892Z,93.51
2017-02-18T06:52:16.481Z,93.04
2017-02-18T06:53:16.870Z,93.32
2017-02-18T06:54:16.854Z,93.32
2017-02-18T06:55:16.833Z,93.23
2017-02-18T06:56:16.832Z,92.94
2017-02-18T06:57:16.820Z,92.94
2017-02-18T06:58:16.803Z,93.04
2017-02-18T06:59:16.797Z,93.23
2017-02-18T07:00:16.781Z,93.41
2017-02-18T07:01:16.773Z,92.66
2017-02-18T07:02:16.756Z,92.85
2017-02-18T07:03:16.755Z,93.04
2017-02-18T07:04:16.355Z,93.23
2017-02-18T07:05:16.721Z,93.23
2017-02-18T07:06:16.721Z,93.41
2017-02-18T07:07:16.702Z,93.32
2017-02-18T07:08:16.698Z,93.32
2017-02-18T07:09:16.683Z,93.23
2017-02-18T07:10:16.679Z,93.04
2017-02-18T07:11:16.277Z,92.75
2017-02-18T07:12:16.654Z,92.85
2017-02-18T07:13:16.642Z,92.8
2017-02-18T07:14:16.625Z,92.8
2017-02-18T07:15:16.623Z,92.94
2017-02-18T07:16:16.611Z,92.9
2017-02-18T07:17:16.602Z,92.99
2017-02-18T07:18:16.586Z,92.71
2017-02-18T07:19:16.580Z,92.23
2017-02-18T07:20:16.561Z,92.8
2017-02-18T07:21:16.552Z,92.51
2017-02-18T07:22:16.551Z,92.8
2017-02-18T07:23:16.531Z,92.71
2017-02-18T07:24:16.145Z,92.61
2017-02-18T07:25:16.507Z,92.61
2017-02-18T07:26:16.502Z,92.61
2017-02-18T07:27:16.111Z,92.8
2017-02-18T07:28:16.472Z,92.8
2017-02-18T07:29:16.469Z,92.61
2017-02-18T07:30:16.469Z,92.71
2017-02-18T07:31:16.450Z,92.71
2017-02-18T07:32:16.429Z,92.51
2017-02-18T07:33:16.033Z,92.51
2017-02-18T07:34:16.413Z,92.32
2017-02-18T07:35:16.403Z,92.61
2017-02-18T07:36:16.392Z,92.42
2017-02-18T07:37:16.385Z,91.94
2017-02-18T07:38:16.383Z,92.61
2017-02-18T07:39:16.363Z,92.23
2017-02-18T07:40:16.339Z,92.04
2017-02-18T07:41:16.342Z,92.42
2017-02-18T07:42:16.322Z,92.51
2017-02-18T07:43:16.323Z,92.42
2017-02-18T07:44:16.305Z,92.23
2017-02-18T07:45:15.906Z,92.04
2017-02-18T07:46:16.286Z,92.42
2017-02-18T07:47:15.886Z,92.32
2017-02-18T07:48:16.260Z,92.23
2017-02-18T07:49:15.869Z,92.42
2017-02-18T07:50:16.236Z,91.94
2017-02-18T07:51:16.229Z,91.94
2017-02-18T07:52:16.235Z,91.47
2017-02-18T07:53:15.818Z,91.94
2017-02-18T07:54:16.195Z,91.38
2017-02-18T07:55:16.189Z,91.47
2017-02-18T07:56:16.176Z,91.94
2017-02-18T07:57:16.178Z,91.85
2017-02-18T07:58:16.153Z,92.61
2017-02-18T07:59:16.144Z,92.23
2017-02-18T08:00:16.133Z,92.61
2017-02-18T08:01:16.125Z,92.71
2017-02-18T08:02:16.124Z,92.42
2017-02-18T08:03:16.106Z,92.51
2017-02-18T08:04:16.099Z,92.61
2017-02-18T08:05:16.089Z,92.61
2017-02-18T08:06:16.071Z,92.42
2017-02-18T08:07:16.057Z,91.85
2017-02-18T08:08:16.055Z,91.94
2017-02-18T08:09:16.055Z,92.71
2017-02-18T08:10:16.037Z,92.51
2017-02-18T08:11:15.630Z,92.8
2017-02-18T08:12:15.633Z,92.61
2017-02-18T08:13:16.022Z,92.8
2017-02-18T08:14:15.985Z,92.42
2017-02-18T08:15:15.983Z,92.23
2017-02-18T08:16:15.585Z,91.75
2017-02-18T08:17:15.960Z,92.27
2017-02-18T08:18:15.950Z,91.89
2017-02-18T08:19:15.944Z,91.61
2017-02-18T08:20:15.937Z,91.33
2017-02-18T08:21:15.929Z,91.52
2017-02-18T08:22:15.918Z,90.85
2017-02-18T08:23:15.894Z,91.52
2017-02-18T08:24:15.497Z,90.94
2017-02-18T08:25:15.482Z,90.94
2017-02-18T08:26:15.877Z,90.85
2017-02-18T08:27:15.478Z,91.33
2017-02-18T08:28:15.846Z,91.13
2017-02-18T08:29:15.830Z,91.61
2017-02-18T08:30:15.818Z,91.13
2017-02-18T08:31:15.429Z,90.94
2017-02-18T08:32:15.428Z,91.33
2017-02-18T08:33:15.796Z,90.56
2017-02-18T08:34:15.389Z,91.04
2017-02-18T08:35:15.785Z,91.04
2017-02-18T08:36:15.771Z,90.56
2017-02-18T08:37:15.756Z,90.66
2017-02-18T08:38:15.746Z,90.75
2017-02-18T08:39:15.728Z,90.75
2017-02-18T08:40:15.720Z,90.28
2017-02-18T08:41:15.324Z,90.47
2017-02-18T08:42:15.697Z,90.56
2017-02-18T08:43:15.696Z,91.13
2017-02-18T08:44:15.676Z,91.42
2017-02-18T08:45:15.667Z,91.42
2017-02-18T08:46:15.655Z,91.13
2017-02-18T08:47:15.661Z,90.75
2017-02-18T08:48:15.632Z,90.94
2017-02-18T08:49:15.631Z,90.37
2017-02-18T08:50:15.614Z,90.09
2017-02-18T08:51:15.609Z,91.13
2017-02-18T08:52:15.617Z,90.75
2017-02-18T08:53:15.589Z,90.09
2017-02-18T08:54:15.633Z,91.04
2017-02-18T08:55:15.181Z,90.37
2017-02-18T08:56:15.549Z,90.28
2017-02-18T08:57:15.551Z,90.94
2017-02-18T08:58:15.538Z,90.28
2017-02-18T08:59:15.135Z,89.8
2017-02-18T09:00:15.131Z,90.09
2017-02-18T09:01:15.515Z,90.66
2017-02-18T09:02:15.495Z,90.66
2017-02-18T09:03:15.094Z,90.37
2017-02-18T09:04:15.482Z,90.47
2017-02-18T09:05:15.075Z,90.28
2017-02-18T09:06:15.454Z,90.09
2017-02-18T09:07:15.443Z,90.37
2017-02-18T09:08:15.429Z,90.37
2017-02-18T09:09:15.043Z,89.71
2017-02-18T09:10:15.418Z,90.37
2017-02-18T09:11:15.409Z,89.14
2017-02-18T09:12:15.016Z,89.52
2017-02-18T09:13:15.005Z,89.23
2017-02-18T09:14:15.375Z,89.42
2017-02-18T09:15:15.364Z,89.33
2017-02-18T09:16:15.353Z,89.33
2017-02-18T09:17:15.337Z,89.47
2017-02-18T09:18:14.946Z,89.42
2017-02-18T09:19:15.322Z,89.18
2017-02-18T09:20:15.324Z,88.04
2017-02-18T09:21:14.918Z,89.04
2017-02-18T09:22:14.902Z,88.71
2017-02-18T09:23:14.906Z,88.52
2017-02-18T09:24:15.268Z,87.95
2017-02-18T09:25:15.275Z,87.66
2017-02-18T09:26:15.257Z,88.38
2017-02-18T09:27:15.238Z,88.38
2017-02-18T09:28:14.844Z,88.33
2017-02-18T09:29:15.244Z,88.42
2017-02-18T09:30:15.219Z,88.71
2017-02-18T09:31:15.204Z,88.71
2017-02-18T09:32:14.799Z,88.42
2017-02-18T09:33:15.190Z,88.71
2017-02-18T09:34:14.784Z,88.9
2017-02-18T09:35:15.178Z,89.09
2017-02-18T09:36:15.450Z,89.28
2017-02-18T09:37:15.149Z,89.09
2017-02-18T09:38:15.141Z,88.9
2017-02-18T09:39:15.130Z,89.09
2017-02-18T09:40:15.120Z,89.09
2017-02-18T09:41:15.020Z,87.95
2017-02-18T09:42:15.100Z,88.23
2017-02-18T09:43:15.091Z,88.52
2017-02-18T09:44:15.080Z,88.04
2017-02-18T09:45:14.673Z,87.38
2017-02-18T09:46:15.061Z,87.85
2017-02-18T09:47:15.046Z,87.85
2017-02-18T09:48:15.043Z,87.57
2017-02-18T09:49:15.027Z,87.95
2017-02-18T09:50:14.633Z,87.95
2017-02-18T09:51:15.006Z,87.85
2017-02-18T09:52:14.611Z,87.95
2017-02-18T09:53:14.986Z,88.04
2017-02-18T09:54:14.588Z,88.33
2017-02-18T09:55:14.965Z,88.04
2017-02-18T09:56:14.960Z,87.66
2017-02-18T09:57:14.957Z,87.57
2017-02-18T09:58:14.947Z,87.28
2017-02-18T09:59:14.932Z,87.57
2017-02-18T10:00:14.931Z,86.9
2017-02-18T10:01:14.524Z,86.71
2017-02-18T10:02:14.897Z,87.57
2017-02-18T10:03:14.897Z,87.47
2017-02-18T10:04:14.885Z,87.38
2017-02-18T10:05:14.491Z,87.66
2017-02-18T10:06:14.868Z,87.38
2017-02-18T10:07:14.466Z,87.38
2017-02-18T10:08:14.847Z,87.66
2017-02-18T10:09:14.834Z,87.57
2017-02-18T10:10:14.824Z,87.32
2017-02-18T10:11:14.810Z,86.94
2017-02-18T10:12:14.809Z,87.19
2017-02-18T10:13:14.411Z,86.9
2017-02-18T10:14:14.843Z,86.94
2017-02-18T10:15:14.394Z,86.57
2017-02-18T10:16:14.780Z,86.85
2017-02-18T10:17:14.773Z,86.85
2017-02-18T10:18:14.754Z,86.47
2017-02-18T10:19:14.746Z,86.57
2017-02-18T10:20:14.734Z,86.61
2017-02-18T10:21:14.328Z,86.94
2017-02-18T10:22:14.718Z,87.13
2017-02-18T10:23:14.709Z,87.04
2017-02-18T10:24:14.701Z,86.57
2017-02-18T10:25:14.702Z,85.71
2017-02-18T10:26:14.675Z,85.52
2017-02-18T10:27:14.665Z,85.71
2017-02-18T10:28:14.266Z,85.61
2017-02-18T10:29:14.646Z,85.52
2017-02-18T10:30:14.658Z,85.52
2017-02-18T10:31:14.635Z,85.24
2017-02-18T10:32:14.230Z,84.76
2017-02-18T10:33:14.616Z,84.19
2017-02-18T10:34:14.220Z,84.38
2017-02-18T10:35:14.599Z,84.56
2017-02-18T10:36:14.590Z,84.47
2017-02-18T10:37:14.585Z,84.28
2017-02-18T10:38:14.566Z,84.47
2017-02-18T10:39:14.560Z,84.38
2017-02-18T10:40:14.158Z,84.56
2017-02-18T10:41:14.555Z,84.28
2017-02-18T10:42:14.536Z,83.81
2017-02-18T10:43:14.521Z,84.56
2017-02-18T10:44:14.512Z,84.95
2017-02-18T10:45:14.513Z,84.76
2017-02-18T10:46:14.488Z,84.38
2017-02-18T10:47:14.515Z,84.56
2017-02-18T10:48:14.473Z,84.47
2017-02-18T10:49:14.477Z,84.56
2017-02-18T10:50:14.076Z,84.38
2017-02-18T10:51:14.446Z,84.52
2017-02-18T10:52:14.437Z,84.62
2017-02-18T10:53:14.438Z,84.72
2017-02-18T10:54:14.038Z,84.91
2017-02-18T10:55:14.419Z,85.33
2017-02-18T10:56:14.406Z,85.24
2017-02-18T10:57:14.391Z,85.33
2017-02-18T10:58:14.393Z,85.33
2017-02-18T10:59:14.375Z,84.85
2017-02-18T11:00:14.374Z,84.76
2017-02-18T11:01:14.366Z,84.56
2017-02-18T11:02:14.354Z,84.85
2017-02-18T11:03:13.948Z,84.56
2017-02-18T11:04:14.332Z,84.85
2017-02-18T11:05:14.339Z,84.85
2017-02-18T11:06:14.329Z,84.38
2017-02-18T11:07:14.307Z,84.28
2017-02-18T11:08:14.298Z,83.71
2017-02-18T11:09:14.281Z,83.42
2017-02-18T11:10:14.269Z,83.62
2017-02-18T11:11:14.279Z,82.95
2017-02-18T11:12:14.259Z,82.67
2017-02-18T11:13:14.253Z,82.67
2017-02-18T11:14:13.863Z,82.76
2017-02-18T11:15:13.838Z,82.09
2017-02-18T11:16:14.226Z,82.09
2017-02-18T11:17:14.211Z,81.85
2017-02-18T11:18:14.210Z,82.42
2017-02-18T11:19:14.200Z,82.23
2017-02-18T11:20:14.194Z,82.32
2017-02-18T11:21:13.784Z,82.14
2017-02-18T11:22:14.169Z,81.85
2017-02-18T11:23:14.156Z,81.95
2017-02-18T11:24:14.148Z,81.37
2017-02-18T11:25:14.148Z,81.28
2017-02-18T11:26:14.131Z,81.37
2017-02-18T11:27:14.134Z,81.28
2017-02-18T11:28:14.116Z,80.99
2017-02-18T11:29:14.108Z,80.9
2017-02-18T11:30:14.093Z,80.52
2017-02-18T11:31:14.092Z,80.8
2017-02-18T11:32:14.102Z,81.28
2017-02-18T11:33:14.081Z,80.99
2017-02-18T11:34:14.069Z,81.09
2017-02-18T11:35:13.666Z,80.61
2017-02-18T11:36:14.042Z,80.04
2017-02-18T11:37:14.038Z,80.04
2017-02-18T11:38:14.037Z,80.23
2017-02-18T11:39:14.018Z,80.9
2017-02-18T11:40:13.621Z,80.47
2017-02-18T11:41:14.007Z,80.9
2017-02-18T11:42:13.998Z,80.71
2017-02-18T11:43:13.993Z,81.09
2017-02-18T11:44:13.987Z,80.42
2017-02-18T11:45:13.966Z,80.33
2017-02-18T11:46:13.970Z,80.57
2017-02-18T11:47:13.959Z,80.76
2017-02-18T11:48:13.955Z,80.86
2017-02-18T11:49:13.930Z,80.95
2017-02-18T11:50:13.938Z,80.47
2017-02-18T11:51:13.908Z,80.95
2017-02-18T11:52:13.901Z,81.24
2017-02-18T11:53:13.910Z,81.43
2017-02-18T11:54:13.497Z,81.81
2017-02-18T11:55:13.934Z,81.81
2017-02-18T11:56:13.884Z,82.14
2017-02-18T11:57:13.879Z,82
2017-02-18T11:58:13.861Z,82.14
2017-02-18T11:59:13.856Z,81.24
2017-02-18T12:00:13.834Z,81.52
2017-02-18T12:01:13.827Z,81.43
2017-02-18T12:02:13.813Z,81.33
2017-02-18T12:03:13.414Z,82.09
2017-02-18T12:04:13.801Z,82
2017-02-18T12:05:13.783Z,82
2017-02-18T12:06:13.397Z,82.09
2017-02-18T12:07:13.383Z,82.19
2017-02-18T12:08:13.382Z,81.9
2017-02-18T12:09:13.749Z,80.95
2017-02-18T12:10:13.750Z,82
2017-02-18T12:11:13.729Z,82.57
2017-02-18T12:12:13.724Z,82.09
2017-02-18T12:13:13.711Z,82.09
2017-02-18T12:14:13.702Z,82.86
2017-02-18T12:15:13.716Z,82.53
2017-02-18T12:16:13.683Z,82.71
2017-02-18T12:17:13.678Z,82.91
2017-02-18T12:18:13.669Z,82.53
2017-02-18T12:19:13.674Z,82.34
2017-02-18T12:20:13.261Z,82.71
2017-02-18T12:21:13.643Z,82.62
2017-02-18T12:22:13.631Z,83.19
2017-02-18T12:23:13.635Z,83.19
2017-02-18T12:24:13.610Z,83.67
2017-02-18T12:25:13.607Z,83.67
2017-02-18T12:26:13.599Z,83.86
2017-02-18T12:27:13.581Z,83.58
2017-02-18T12:28:13.581Z,83.48
2017-02-18T12:29:13.585Z,83.86
2017-02-18T12:30:13.169Z,83.58
2017-02-18T12:31:13.551Z,83.76
2017-02-18T12:32:13.541Z,83.58
2017-02-18T12:33:13.525Z,82.91
2017-02-18T12:34:13.525Z,82.34
2017-02-18T12:35:13.510Z,83
2017-02-18T12:36:13.508Z,82.81
2017-02-18T12:37:13.491Z,83
2017-02-18T12:38:13.479Z,82.91
2017-02-18T12:39:13.479Z,82.91
2017-02-18T12:40:13.468Z,83
2017-02-18T12:41:13.469Z,82.81
2017-02-18T12:42:13.448Z,82.91
2017-02-18T12:43:13.439Z,82.34
2017-02-18T12:44:13.424Z,83
2017-02-18T12:45:13.413Z,82.62
2017-02-18T12:46:13.413Z,82.71
2017-02-18T12:47:13.398Z,82.34
2017-02-18T12:48:13.389Z,82.05
2017-02-18T12:49:13.376Z,81.96
2017-02-18T12:50:13.368Z,81.86
2017-02-18T12:51:13.358Z,81.29
2017-02-18T12:52:13.355Z,81.29
2017-02-18T12:53:13.345Z,81.38
2017-02-18T12:54:13.334Z,80.91
2017-02-18T12:55:13.327Z,80.82